Wetterdaten: Woche 20.03.17 - 26.03.17 (KW12)
Datum Zeit Temp. A. Feuchte A. Luftdruck Regen Wind Richtung Sonnenschein ET UV Solar Taupunkt Windchill Windben Empfang
20.03.2017 00:00 12,0 C 81 % 1009,5 hPa 0,0 l/m 20,0 km/h (4 Bft) W-SW 0,00 h 0,000 mm 0,0 UV-I 0 W/m 8,8 C 5,9 C 29,1 km/h (5 Bft) 96,53 %
20.03.2017 01:00 12,3 C 78 % 1009,9 hPa 0,0 l/m 20,6 km/h (4 Bft) W 0,00 h 0,051 mm 0,0 UV-I 0 W/m 8,5 C 6,1 C 30,7 km/h (5 Bft) 94,97 %
20.03.2017 02:00 12,0 C 78 % 1010,4 hPa 0,0 l/m 18,0 km/h (3 Bft) W-SW 0,00 h 0,051 mm 0,0 UV-I 0 W/m 8,4 C 6,6 C 27,4 km/h (4 Bft) 97,45 %
20.03.2017 03:00 11,4 C 82 % 1010,7 hPa 0,0 l/m 16,8 km/h (3 Bft) W-SW 0,00 h 0,050 mm 0,0 UV-I 0 W/m 8,4 C 6,2 C 26,4 km/h (4 Bft) 97,74 %
20.03.2017 04:00 10,1 C 90 % 1011,2 hPa 0,0 l/m 15,3 km/h (3 Bft) W-SW 0,00 h 0,026 mm 0,0 UV-I 0 W/m 8,5 C 5,2 C 23,0 km/h (4 Bft) 98,26 %
20.03.2017 05:00 9,9 C 89 % 1011,5 hPa 0,0 l/m 16,5 km/h (3 Bft) W-SW 0,00 h 0,025 mm 0,0 UV-I 0 W/m 8,2 C 4,4 C 24,1 km/h (4 Bft) 96,14 %
20.03.2017 06:00 10,0 C 86 % 1012,0 hPa 0,0 l/m 16,5 km/h (3 Bft) W-SW 0,00 h 0,026 mm 0,0 UV-I 19 W/m 7,8 C 4,6 C 24,0 km/h (4 Bft) 94,93 %
20.03.2017 07:00 10,1 C 85 % 1012,6 hPa 0,0 l/m 13,7 km/h (3 Bft) W-SW 0,00 h 0,025 mm 0,0 UV-I 53 W/m 7,7 C 5,9 C 20,9 km/h (4 Bft) 96,81 %
20.03.2017 08:00 10,1 C 84 % 1012,8 hPa 0,0 l/m 16,0 km/h (3 Bft) W-SW 0,00 h 0,051 mm 0,0 UV-I 101 W/m 7,5 C 4,9 C 24,3 km/h (4 Bft) 96,23 %
20.03.2017 09:00 10,3 C 84 % 1012,8 hPa 0,0 l/m 14,4 km/h (3 Bft) SW 0,03 h 0,076 mm 0,7 UV-I 173 W/m 7,6 C 5,8 C 21,7 km/h (4 Bft) 95,55 %
20.03.2017 10:00 10,6 C 80 % 1013,1 hPa 0,0 l/m 12,1 km/h (2 Bft) W-SW 0,00 h 0,102 mm 0,7 UV-I 157 W/m 7,3 C 7,2 C 18,9 km/h (3 Bft) 96,12 %
20.03.2017 11:00 10,4 C 83 % 1012,8 hPa 0,0 l/m 11,5 km/h (2 Bft) W-SW 0,00 h 0,101 mm 1,0 UV-I 188 W/m 7,6 C 7,3 C 18,0 km/h (3 Bft) 97,08 %
20.03.2017 12:00 11,7 C 81 % 1012,3 hPa 0,0 l/m 10,2 km/h (2 Bft) W 0,83 h 0,102 mm 2,2 UV-I 474 W/m 8,5 C 9,4 C 16,2 km/h (3 Bft) 96,58 %
20.03.2017 13:00 12,8 C 79 % 1011,7 hPa 0,0 l/m 9,6 km/h (2 Bft) W-SW 0,60 h 0,254 mm 1,6 UV-I 371 W/m 9,2 C 11,0 C 15,8 km/h (3 Bft) 96,30 %
20.03.2017 14:00 13,8 C 74 % 1011,0 hPa 0,0 l/m 8,6 km/h (2 Bft) W 0,93 h 0,203 mm 1,6 UV-I 479 W/m 9,3 C 12,5 C 14,7 km/h (3 Bft) 94,34 %
20.03.2017 15:00 13,8 C 73 % 1010,4 hPa 0,0 l/m 5,8 km/h (2 Bft) W-SW 0,40 h 0,254 mm 0,8 UV-I 254 W/m 9,2 C 13,4 C 11,1 km/h (2 Bft) 95,96 %
20.03.2017 16:00 13,5 C 74 % 1009,9 hPa 0,0 l/m 2,1 km/h (1 Bft) W-NW 0,60 h 0,152 mm 0,5 UV-I 195 W/m 9,0 C 13,5 C 4,8 km/h (1 Bft) 97,59 %
20.03.2017 17:00 12,8 C 77 % 1009,5 hPa 0,0 l/m 0,4 km/h (0 Bft) NW 0,60 h 0,102 mm 0,0 UV-I 74 W/m 8,9 C 12,8 C 1,7 km/h (1 Bft) 95,61 %
20.03.2017 18:00 11,2 C 84 % 1009,2 hPa 0,0 l/m 3,6 km/h (1 Bft) O 0,07 h 0,051 mm 0,0 UV-I 8 W/m 8,6 C 11,2 C 5,1 km/h (1 Bft) 97,79 %
20.03.2017 19:00 9,3 C 90 % 1009,1 hPa 0,0 l/m 0,9 km/h (0 Bft) O 0,00 h 0,000 mm 0,0 UV-I 0 W/m 7,8 C 9,3 C 1,7 km/h (1 Bft) 94,78 %
20.03.2017 20:00 8,2 C 93 % 1009,1 hPa 0,0 l/m 1,2 km/h (1 Bft) O 0,00 h 0,000 mm 0,0 UV-I 0 W/m 7,1 C 8,2 C 2,1 km/h (1 Bft) 96,23 %
20.03.2017 21:00 7,8 C 94 % 1009,2 hPa 0,0 l/m 2,2 km/h (1 Bft) O 0,00 h 0,000 mm 0,0 UV-I 0 W/m 6,9 C 7,8 C 3,8 km/h (1 Bft) 97,85 %
20.03.2017 22:00 7,5 C 95 % 1009,0 hPa 0,0 l/m 1,7 km/h (1 Bft) O 0,00 h 0,000 mm 0,0 UV-I 0 W/m 6,8 C 7,5 C 3,3 km/h (1 Bft) 96,08 %
20.03.2017 23:00 7,3 C 95 % 1009,2 hPa 0,0 l/m 2,0 km/h (1 Bft) SO 0,00 h 0,000 mm 0,0 UV-I 0 W/m 6,6 C 7,3 C 3,5 km/h (1 Bft) 96,12 %
21.03.2017 00:00 7,1 C 96 % 1009,2 hPa 0,0 l/m 2,9 km/h (1 Bft) SO 0,00 h 0,000 mm 0,0 UV-I 0 W/m 6,5 C 7,1 C 5,4 km/h (1 Bft) 94,62 %
21.03.2017 01:00 7,1 C 96 % 1009,4 hPa 0,0 l/m 5,1 km/h (1 Bft) SW 0,00 h 0,000 mm 0,0 UV-I 0 W/m 6,5 C 6,9 C 7,8 km/h (2 Bft) 97,54 %
21.03.2017 02:00 7,9 C 95 % 1009,7 hPa 0,0 l/m 7,1 km/h (2 Bft) SW 0,00 h 0,000 mm 0,0 UV-I 0 W/m 7,1 C 7,1 C 11,3 km/h (2 Bft) 95,90 %
21.03.2017 03:00 8,9 C 91 % 1009,9 hPa 0,0 l/m 10,9 km/h (2 Bft) W-SW 0,00 h 0,000 mm 0,0 UV-I 0 W/m 7,5 C 6,0 C 16,3 km/h (3 Bft) 97,72 %
21.03.2017 04:00 9,5 C 88 % 1010,2 hPa 0,0 l/m 10,3 km/h (2 Bft) W-SW 0,00 h 0,000 mm 0,0 UV-I 0 W/m 7,6 C 6,9 C 15,7 km/h (3 Bft) 94,78 %
21.03.2017 05:00 9,4 C 87 % 1010,7 hPa 0,0 l/m 7,3 km/h (2 Bft) W-SW 0,00 h 0,025 mm 0,0 UV-I 0 W/m 7,4 C 8,5 C 11,0 km/h (2 Bft) 97,70 %
21.03.2017 06:00 9,3 C 87 % 1011,3 hPa 0,0 l/m 6,3 km/h (2 Bft) SW 0,00 h 0,026 mm 0,0 UV-I 17 W/m 7,3 C 9,0 C 9,5 km/h (2 Bft) 97,79 %
21.03.2017 07:00 9,5 C 84 % 1011,5 hPa 0,0 l/m 5,0 km/h (1 Bft) W 0,00 h 0,025 mm 0,0 UV-I 51 W/m 6,9 C 9,4 C 7,9 km/h (2 Bft) 96,80 %
21.03.2017 08:00 10,3 C 80 % 1011,5 hPa 0,0 l/m 5,0 km/h (1 Bft) W 0,00 h 0,026 mm 0,5 UV-I 159 W/m 6,9 C 10,0 C 8,9 km/h (2 Bft) 95,34 %
21.03.2017 09:00 11,3 C 75 % 1011,4 hPa 0,0 l/m 3,0 km/h (1 Bft) W 0,20 h 0,076 mm 1,0 UV-I 278 W/m 7,1 C 11,3 C 6,4 km/h (2 Bft) 97,12 %
21.03.2017 10:00 12,5 C 73 % 1011,1 hPa 0,0 l/m 5,3 km/h (1 Bft) W-SW 1,00 h 0,152 mm 1,7 UV-I 471 W/m 7,8 C 12,3 C 10,0 km/h (2 Bft) 98,46 %
21.03.2017 11:00 13,7 C 70 % 1010,8 hPa 0,0 l/m 3,5 km/h (1 Bft) W 0,93 h 0,254 mm 2,1 UV-I 491 W/m 8,4 C 13,7 C 7,7 km/h (2 Bft) 98,87 %
21.03.2017 12:00 14,1 C 68 % 1010,1 hPa 0,0 l/m 3,2 km/h (1 Bft) W-NW 1,00 h 0,254 mm 2,4 UV-I 529 W/m 8,2 C 14,1 C 7,2 km/h (2 Bft) 98,52 %
21.03.2017 13:00 14,1 C 66 % 1009,3 hPa 0,0 l/m 3,1 km/h (1 Bft) NW 0,63 h 0,280 mm 1,9 UV-I 405 W/m 7,9 C 14,1 C 7,7 km/h (2 Bft) 97,59 %
21.03.2017 14:00 14,5 C 68 % 1008,6 hPa 0,0 l/m 3,6 km/h (1 Bft) NW 0,60 h 0,228 mm 1,5 UV-I 362 W/m 8,5 C 14,3 C 8,1 km/h (2 Bft) 96,14 %
21.03.2017 15:00 14,4 C 68 % 1008,2 hPa 0,0 l/m 1,5 km/h (1 Bft) NW 0,37 h 0,203 mm 0,9 UV-I 221 W/m 8,6 C 14,4 C 4,3 km/h (1 Bft) 96,89 %
21.03.2017 16:00 13,5 C 71 % 1008,0 hPa 0,0 l/m 1,3 km/h (1 Bft) NW 0,00 h 0,127 mm 0,0 UV-I 48 W/m 8,2 C 13,5 C 3,6 km/h (1 Bft) 96,85 %
21.03.2017 17:00 12,7 C 78 % 1008,2 hPa 0,0 l/m 1,2 km/h (1 Bft) NW 0,00 h 0,026 mm 0,0 UV-I 15 W/m 8,9 C 12,7 C 2,1 km/h (1 Bft) 95,97 %
21.03.2017 18:00 11,9 C 83 % 1008,7 hPa 0,0 l/m 0,6 km/h (0 Bft) NW 0,00 h 0,025 mm 0,0 UV-I 5 W/m 9,1 C 11,9 C 1,7 km/h (1 Bft) 95,59 %
21.03.2017 19:00 11,5 C 85 % 1009,1 hPa 0,0 l/m 0,3 km/h (0 Bft) NW 0,00 h 0,000 mm 0,0 UV-I 0 W/m 9,0 C 11,5 C 0,6 km/h (0 Bft) 95,64 %
21.03.2017 20:00 11,0 C 88 % 1009,4 hPa 0,0 l/m 0,8 km/h (0 Bft) NW 0,00 h 0,000 mm 0,0 UV-I 0 W/m 9,1 C 11,0 C 1,8 km/h (1 Bft) 96,52 %
21.03.2017 21:00 11,2 C 87 % 1009,6 hPa 0,0 l/m 1,9 km/h (1 Bft) NW 0,00 h 0,000 mm 0,0 UV-I 0 W/m 9,0 C 11,2 C 3,5 km/h (1 Bft) 95,90 %
21.03.2017 22:00 10,9 C 89 % 1009,9 hPa 0,2 l/m 2,3 km/h (1 Bft) SW 0,00 h 0,000 mm 0,0 UV-I 0 W/m 9,1 C 10,9 C 4,3 km/h (1 Bft) 97,14 %
21.03.2017 23:00 10,3 C 93 % 1010,0 hPa 0,2 l/m 0,4 km/h (0 Bft) S 0,00 h 0,000 mm 0,0 UV-I 0 W/m 9,2 C 10,3 C 1,3 km/h (1 Bft) 95,45 %
22.03.2017 00:00 9,9 C 95 % 1009,9 hPa 0,2 l/m 0,9 km/h (0 Bft) S 0,00 h 0,000 mm 0,0 UV-I 0 W/m 9,1 C 9,9 C 1,8 km/h (1 Bft) 98,42 %
22.03.2017 01:00 9,6 C 96 % 1009,9 hPa 0,0 l/m 0,4 km/h (0 Bft) S 0,00 h 0,000 mm 0,0 UV-I 0 W/m 8,9 C 9,6 C 1,0 km/h (0 Bft) 96,43 %
22.03.2017 02:00 9,4 C 96 % 1009,5 hPa 0,0 l/m 1,1 km/h (1 Bft) S 0,00 h 0,000 mm 0,0 UV-I 0 W/m 8,8 C 9,4 C 1,9 km/h (1 Bft) 96,79 %
22.03.2017 03:00 9,3 C 96 % 1009,4 hPa 0,0 l/m 1,5 km/h (1 Bft) S 0,00 h 0,000 mm 0,0 UV-I 0 W/m 8,7 C 9,3 C 2,9 km/h (1 Bft) 94,90 %
22.03.2017 04:00 9,1 C 96 % 1009,5 hPa 0,0 l/m 2,5 km/h (1 Bft) O-NO 0,00 h 0,000 mm 0,0 UV-I 0 W/m 8,4 C 9,1 C 4,3 km/h (1 Bft) 97,55 %
22.03.2017 05:00 9,0 C 96 % 1009,7 hPa 0,0 l/m 1,3 km/h (1 Bft) O-NO 0,00 h 0,000 mm 0,0 UV-I 0 W/m 8,4 C 9,0 C 2,3 km/h (1 Bft) 95,57 %
22.03.2017 06:00 8,9 C 96 % 1010,0 hPa 0,0 l/m 0,2 km/h (0 Bft) O-NO 0,00 h 0,000 mm 0,0 UV-I 6 W/m 8,3 C 8,9 C 0,9 km/h (0 Bft) 95,68 %
22.03.2017 07:00 8,8 C 96 % 1010,2 hPa 0,2 l/m 1,1 km/h (1 Bft) O-NO 0,00 h 0,000 mm 0,0 UV-I 31 W/m 8,2 C 8,8 C 2,1 km/h (1 Bft) 95,51 %
22.03.2017 08:00 8,9 C 93 % 1010,5 hPa 0,0 l/m 5,2 km/h (1 Bft) NO 0,00 h 0,025 mm 0,0 UV-I 43 W/m 7,9 C 7,9 C 8,7 km/h (2 Bft) 98,59 %
22.03.2017 09:00 8,7 C 92 % 1011,3 hPa 0,0 l/m 4,7 km/h (1 Bft) N-NO 0,00 h 0,026 mm 0,0 UV-I 43 W/m 7,4 C 8,3 C 9,3 km/h (2 Bft) 97,63 %
22.03.2017 10:00 8,5 C 93 % 1011,8 hPa 0,0 l/m 2,5 km/h (1 Bft) N-NO 0,00 h 0,025 mm 0,0 UV-I 34 W/m 7,4 C 8,4 C 5,4 km/h (1 Bft) 97,13 %
22.03.2017 11:00 8,2 C 93 % 1012,1 hPa 0,0 l/m 6,9 km/h (2 Bft) N-NO 0,00 h 0,026 mm 0,0 UV-I 45 W/m 7,2 C 7,3 C 11,3 km/h (2 Bft) 94,82 %
22.03.2017 12:00 7,7 C 92 % 1012,4 hPa 0,0 l/m 6,3 km/h (2 Bft) N-NO 0,00 h 0,025 mm 0,3 UV-I 56 W/m 6,5 C 6,9 C 10,8 km/h (2 Bft) 97,26 %
22.03.2017 13:00 8,0 C 90 % 1012,2 hPa 0,0 l/m 9,8 km/h (2 Bft) NO 0,00 h 0,025 mm 0,5 UV-I 104 W/m 6,4 C 5,5 C 15,3 km/h (3 Bft) 97,17 %
22.03.2017 14:00 8,6 C 86 % 1012,1 hPa 0,0 l/m 13,1 km/h (3 Bft) NO 0,00 h 0,051 mm 0,6 UV-I 156 W/m 6,4 C 4,4 C 18,6 km/h (3 Bft) 96,81 %
22.03.2017 15:00 9,2 C 87 % 1012,0 hPa 0,0 l/m 13,6 km/h (3 Bft) NO 0,00 h 0,076 mm 0,5 UV-I 89 W/m 7,1 C 4,9 C 19,9 km/h (4 Bft) 95,22 %
22.03.2017 16:00 9,0 C 89 % 1012,0 hPa 0,2 l/m 23,0 km/h (4 Bft) O-NO 0,00 h 0,051 mm 0,0 UV-I 37 W/m 7,3 C 1,1 C 31,0 km/h (5 Bft) 97,74 %
22.03.2017 17:00 8,4 C 90 % 1012,3 hPa 0,0 l/m 21,8 km/h (4 Bft) O-NO 0,00 h 0,051 mm 0,0 UV-I 22 W/m 6,9 C 0,7 C 29,4 km/h (5 Bft) 96,12 %
22.03.2017 18:00 7,8 C 90 % 1012,5 hPa 0,0 l/m 22,7 km/h (4 Bft) O-NO 0,10 h 0,025 mm 0,0 UV-I 12 W/m 6,3 C -0,4 C 31,7 km/h (5 Bft) 95,98 %
22.03.2017 19:00 7,3 C 90 % 1013,0 hPa 0,0 l/m 24,4 km/h (4 Bft) O-NO 0,00 h 0,026 mm 0,0 UV-I 0 W/m 5,8 C -1,6 C 33,7 km/h (5 Bft) 94,92 %
22.03.2017 20:00 7,0 C 89 % 1013,4 hPa 0,0 l/m 24,8 km/h (4 Bft) O-NO 0,00 h 0,025 mm 0,0 UV-I 0 W/m 5,4 C -2,1 C 34,6 km/h (5 Bft) 97,70 %
22.03.2017 21:00 6,7 C 88 % 1013,4 hPa 0,0 l/m 23,9 km/h (4 Bft) O-NO 0,00 h 0,026 mm 0,0 UV-I 0 W/m 4,9 C -2,2 C 32,7 km/h (5 Bft) 97,36 %
22.03.2017 22:00 6,1 C 89 % 1013,3 hPa 0,0 l/m 21,5 km/h (4 Bft) O-NO 0,00 h 0,025 mm 0,0 UV-I 0 W/m 4,5 C -2,2 C 30,3 km/h (5 Bft) 96,92 %
22.03.2017 23:00 5,6 C 91 % 1013,2 hPa 0,0 l/m 20,1 km/h (4 Bft) O-NO 0,00 h 0,025 mm 0,0 UV-I 0 W/m 4,3 C -2,4 C 28,4 km/h (4 Bft) 96,02 %
23.03.2017 00:00 5,3 C 91 % 1013,1 hPa 0,0 l/m 18,8 km/h (3 Bft) O-NO 0,00 h 0,000 mm 0,0 UV-I 0 W/m 3,9 C -2,3 C 25,5 km/h (4 Bft) 97,03 %
23.03.2017 01:00 4,9 C 92 % 1013,0 hPa 0,0 l/m 19,9 km/h (4 Bft) O-NO 0,00 h 0,025 mm 0,0 UV-I 0 W/m 3,7 C -3,2 C 27,3 km/h (4 Bft) 97,07 %
23.03.2017 02:00 4,5 C 93 % 1012,8 hPa 0,0 l/m 18,1 km/h (3 Bft) O-NO 0,00 h 0,026 mm 0,0 UV-I 0 W/m 3,6 C -2,9 C 24,5 km/h (4 Bft) 96,54 %
23.03.2017 03:00 4,4 C 94 % 1012,9 hPa 0,0 l/m 15,0 km/h (3 Bft) O-NO 0,00 h 0,000 mm 0,0 UV-I 0 W/m 3,5 C -1,6 C 20,8 km/h (4 Bft) 96,59 %
23.03.2017 04:00 4,3 C 96 % 1012,9 hPa 0,0 l/m 15,1 km/h (3 Bft) O-NO 0,00 h 0,000 mm 0,0 UV-I 0 W/m 3,6 C -1,8 C 21,1 km/h (4 Bft) 97,32 %
23.03.2017 05:00 4,3 C 95 % 1013,3 hPa 0,0 l/m 13,9 km/h (3 Bft) O-NO 0,00 h 0,000 mm 0,0 UV-I 5 W/m 3,6 C -1,1 C 19,4 km/h (3 Bft) 97,91 %
23.03.2017 06:00 4,3 C 95 % 1014,0 hPa 0,0 l/m 8,1 km/h (2 Bft) O-NO 0,03 h 0,000 mm 0,0 UV-I 11 W/m 3,6 C 2,4 C 12,8 km/h (3 Bft) 96,09 %
23.03.2017 07:00 4,5 C 95 % 1014,9 hPa 0,0 l/m 4,5 km/h (1 Bft) O 0,00 h 0,000 mm 0,0 UV-I 46 W/m 3,8 C 4,5 C 8,0 km/h (2 Bft) 97,33 %
23.03.2017 08:00 5,1 C 93 % 1015,5 hPa 0,0 l/m 6,5 km/h (2 Bft) O-NO 0,00 h 0,025 mm 0,0 UV-I 106 W/m 4,1 C 4,3 C 10,5 km/h (2 Bft) 97,81 %
23.03.2017 09:00 5,7 C 91 % 1016,0 hPa 0,0 l/m 4,5 km/h (1 Bft) O-NO 0,00 h 0,051 mm 0,5 UV-I 138 W/m 4,3 C 5,6 C 7,3 km/h (2 Bft) 99,09 %
23.03.2017 10:00 6,1 C 90 % 1016,4 hPa 0,0 l/m 4,0 km/h (1 Bft) O-NO 0,00 h 0,051 mm 0,6 UV-I 146 W/m 4,6 C 6,1 C 6,4 km/h (2 Bft) 97,73 %
23.03.2017 11:00 6,5 C 90 % 1016,5 hPa 0,0 l/m 4,0 km/h (1 Bft) O-NO 0,00 h 0,076 mm 0,8 UV-I 169 W/m 4,9 C 6,5 C 6,7 km/h (2 Bft) 96,16 %
23.03.2017 12:00 7,3 C 88 % 1016,4 hPa 0,0 l/m 3,3 km/h (1 Bft) O-NO 0,00 h 0,076 mm 1,1 UV-I 241 W/m 5,4 C 7,3 C 5,9 km/h (2 Bft) 95,61 %
23.03.2017 13:00 8,0 C 87 % 1016,3 hPa 0,0 l/m 2,0 km/h (1 Bft) O-NO 0,00 h 0,102 mm 1,1 UV-I 245 W/m 6,0 C 8,0 C 4,1 km/h (1 Bft) 96,48 %
23.03.2017 14:00 8,9 C 84 % 1015,8 hPa 0,0 l/m 2,8 km/h (1 Bft) NO 0,33 h 0,101 mm 1,1 UV-I 292 W/m 6,3 C 8,9 C 5,4 km/h (1 Bft) 96,78 %
23.03.2017 15:00 9,6 C 83 % 1015,7 hPa 0,0 l/m 4,8 km/h (1 Bft) NO 0,60 h 0,127 mm 0,8 UV-I 315 W/m 6,8 C 9,5 C 7,7 km/h (2 Bft) 97,96 %
23.03.2017 16:00 9,7 C 82 % 1015,8 hPa 0,0 l/m 7,6 km/h (2 Bft) O-NO 0,93 h 0,153 mm 0,5 UV-I 220 W/m 6,7 C 8,7 C 11,9 km/h (2 Bft) 94,08 %
23.03.2017 17:00 9,2 C 83 % 1015,9 hPa 0,0 l/m 5,3 km/h (1 Bft) O-NO 0,90 h 0,101 mm 0,0 UV-I 90 W/m 6,5 C 9,2 C 7,7 km/h (2 Bft) 96,72 %
23.03.2017 18:00 7,9 C 88 % 1016,3 hPa 0,0 l/m 4,6 km/h (1 Bft) O-NO 0,20 h 0,051 mm 0,0 UV-I 11 W/m 6,0 C 7,9 C 6,5 km/h (2 Bft) 95,48 %
23.03.2017 19:00 6,6 C 91 % 1016,6 hPa 0,0 l/m 3,4 km/h (1 Bft) O-NO 0,00 h 0,000 mm 0,0 UV-I 0 W/m 5,3 C 6,6 C 5,2 km/h (1 Bft) 97,72 %
23.03.2017 20:00 5,8 C 93 % 1017,2 hPa 0,0 l/m 1,0 km/h (0 Bft) O-NO 0,00 h 0,000 mm 0,0 UV-I 0 W/m 4,7 C 5,8 C 1,9 km/h (1 Bft) 95,23 %
23.03.2017 21:00 4,7 C 95 % 1018,1 hPa 0,0 l/m 1,4 km/h (1 Bft) O-NO 0,00 h 0,000 mm 0,0 UV-I 0 W/m 3,9 C 4,7 C 2,3 km/h (1 Bft) 97,58 %
23.03.2017 22:00 4,8 C 96 % 1018,6 hPa 0,0 l/m 3,5 km/h (1 Bft) O-NO 0,00 h 0,000 mm 0,0 UV-I 0 W/m 4,2 C 4,7 C 5,4 km/h (1 Bft) 97,23 %
23.03.2017 23:00 5,5 C 95 % 1018,8 hPa 0,0 l/m 4,9 km/h (1 Bft) NO 0,00 h 0,000 mm 0,0 UV-I 0 W/m 4,8 C 5,3 C 7,2 km/h (2 Bft) 97,65 %
24.03.2017 00:00 5,1 C 95 % 1019,1 hPa 0,0 l/m 5,4 km/h (1 Bft) O-NO 0,00 h 0,000 mm 0,0 UV-I 0 W/m 4,3 C 4,8 C 8,4 km/h (2 Bft) 96,57 %
24.03.2017 01:00 5,1 C 96 % 1019,6 hPa 0,0 l/m 4,9 km/h (1 Bft) NO 0,00 h 0,000 mm 0,0 UV-I 0 W/m 4,5 C 5,0 C 7,4 km/h (2 Bft) 96,00 %
24.03.2017 02:00 5,9 C 95 % 1019,8 hPa 0,0 l/m 10,9 km/h (2 Bft) O-NO 0,00 h 0,000 mm 0,0 UV-I 0 W/m 5,2 C 2,6 C 15,8 km/h (3 Bft) 98,16 %
24.03.2017 03:00 6,1 C 95 % 1020,5 hPa 0,0 l/m 8,3 km/h (2 Bft) O-NO 0,00 h 0,000 mm 0,0 UV-I 0 W/m 5,3 C 4,5 C 12,7 km/h (3 Bft) 97,09 %
24.03.2017 04:00 6,3 C 92 % 1021,5 hPa 0,0 l/m 8,9 km/h (2 Bft) NO 0,00 h 0,000 mm 0,0 UV-I 0 W/m 5,1 C 4,3 C 13,9 km/h (3 Bft) 97,10 %
24.03.2017 05:00 6,2 C 91 % 1022,3 hPa 0,0 l/m 10,1 km/h (2 Bft) NO 0,00 h 0,000 mm 0,0 UV-I 0 W/m 4,9 C 3,4 C 15,3 km/h (3 Bft) 94,23 %
24.03.2017 06:00 6,3 C 91 % 1023,0 hPa 0,0 l/m 10,9 km/h (2 Bft) NO 0,00 h 0,000 mm 0,0 UV-I 15 W/m 4,9 C 3,0 C 16,4 km/h (3 Bft) 96,42 %
24.03.2017 07:00 6,4 C 90 % 1023,9 hPa 0,0 l/m 12,3 km/h (3 Bft) NO 0,00 h 0,025 mm 0,0 UV-I 38 W/m 4,9 C 2,4 C 17,9 km/h (3 Bft) 95,72 %
24.03.2017 08:00 6,4 C 89 % 1024,5 hPa 0,0 l/m 16,4 km/h (3 Bft) NO 0,00 h 0,026 mm 0,0 UV-I 79 W/m 4,8 C 0,2 C 23,5 km/h (4 Bft) 95,98 %
24.03.2017 09:00 6,7 C 88 % 1025,2 hPa 0,0 l/m 14,4 km/h (3 Bft) NO 0,00 h 0,051 mm 0,5 UV-I 103 W/m 4,9 C 1,6 C 20,4 km/h (4 Bft) 93,95 %
24.03.2017 10:00 7,2 C 87 % 1025,7 hPa 0,0 l/m 15,4 km/h (3 Bft) NO 0,00 h 0,050 mm 0,6 UV-I 144 W/m 5,3 C 1,6 C 22,8 km/h (4 Bft) 97,68 %
24.03.2017 11:00 7,5 C 87 % 1026,0 hPa 0,0 l/m 14,9 km/h (3 Bft) NO 0,00 h 0,077 mm 0,6 UV-I 127 W/m 5,4 C 2,2 C 21,9 km/h (4 Bft) 96,13 %
24.03.2017 12:00 7,5 C 87 % 1026,3 hPa 0,0 l/m 17,1 km/h (3 Bft) O-NO 0,00 h 0,076 mm 0,5 UV-I 96 W/m 5,5 C 1,3 C 23,8 km/h (4 Bft) 97,25 %
24.03.2017 13:00 7,8 C 86 % 1026,1 hPa 0,0 l/m 16,7 km/h (3 Bft) O-NO 0,03 h 0,051 mm 0,7 UV-I 168 W/m 5,5 C 1,7 C 23,0 km/h (4 Bft) 94,57 %
24.03.2017 14:00 8,7 C 81 % 1025,8 hPa 0,0 l/m 17,8 km/h (3 Bft) O-NO 0,10 h 0,101 mm 0,8 UV-I 206 W/m 5,6 C 2,4 C 24,1 km/h (4 Bft) 97,80 %
24.03.2017 15:00 8,7 C 81 % 1026,0 hPa 0,0 l/m 17,8 km/h (3 Bft) O-NO 0,00 h 0,127 mm 0,0 UV-I 98 W/m 5,6 C 2,4 C 23,7 km/h (4 Bft) 96,06 %
24.03.2017 16:00 8,7 C 82 % 1026,1 hPa 0,0 l/m 14,1 km/h (3 Bft) O-NO 0,00 h 0,076 mm 0,0 UV-I 59 W/m 5,7 C 4,0 C 19,8 km/h (4 Bft) 97,74 %
24.03.2017 17:00 8,5 C 84 % 1026,3 hPa 0,0 l/m 10,5 km/h (2 Bft) NO 0,00 h 0,051 mm 0,0 UV-I 21 W/m 5,9 C 5,8 C 15,6 km/h (3 Bft) 95,19 %
24.03.2017 18:00 8,2 C 83 % 1026,8 hPa 0,0 l/m 9,1 km/h (2 Bft) NO 0,00 h 0,026 mm 0,0 UV-I 5 W/m 5,6 C 6,3 C 14,0 km/h (3 Bft) 95,92 %
24.03.2017 19:00 8,1 C 85 % 1027,4 hPa 0,0 l/m 6,5 km/h (2 Bft) NO 0,00 h 0,025 mm 0,0 UV-I 0 W/m 5,7 C 7,7 C 9,5 km/h (2 Bft) 96,16 %
24.03.2017 20:00 8,0 C 85 % 1027,9 hPa 0,0 l/m 7,6 km/h (2 Bft) NO 0,00 h 0,025 mm 0,0 UV-I 0 W/m 5,6 C 6,9 C 11,2 km/h (2 Bft) 96,89 %
24.03.2017 21:00 7,8 C 85 % 1028,1 hPa 0,0 l/m 8,9 km/h (2 Bft) NO 0,00 h 0,026 mm 0,0 UV-I 0 W/m 5,5 C 6,0 C 13,5 km/h (3 Bft) 93,60 %
24.03.2017 22:00 7,4 C 85 % 1028,3 hPa 0,0 l/m 8,9 km/h (2 Bft) NO 0,00 h 0,025 mm 0,0 UV-I 0 W/m 5,1 C 5,5 C 13,7 km/h (3 Bft) 96,82 %
24.03.2017 23:00 7,2 C 83 % 1028,3 hPa 0,0 l/m 11,6 km/h (2 Bft) NO 0,00 h 0,026 mm 0,0 UV-I 0 W/m 4,4 C 3,6 C 17,3 km/h (3 Bft) 98,36 %
25.03.2017 00:00 7,1 C 82 % 1028,1 hPa 0,0 l/m 11,7 km/h (2 Bft) NO 0,00 h 0,000 mm 0,0 UV-I 0 W/m 4,3 C 3,4 C 17,8 km/h (3 Bft) 99,36 %
25.03.2017 01:00 6,7 C 85 % 1028,0 hPa 0,0 l/m 13,8 km/h (3 Bft) O-NO 0,00 h 0,025 mm 0,0 UV-I 0 W/m 4,3 C 1,8 C 19,2 km/h (3 Bft) 96,52 %
25.03.2017 02:00 6,0 C 83 % 1027,7 hPa 0,0 l/m 14,1 km/h (3 Bft) NO 0,00 h 0,026 mm 0,0 UV-I 0 W/m 3,4 C 0,8 C 19,6 km/h (3 Bft) 98,21 %
25.03.2017 03:00 5,4 C 83 % 1027,5 hPa 0,0 l/m 12,1 km/h (2 Bft) O-NO 0,00 h 0,025 mm 0,0 UV-I 0 W/m 2,8 C 1,2 C 17,8 km/h (3 Bft) 97,91 %
25.03.2017 04:00 4,7 C 85 % 1027,3 hPa 0,0 l/m 10,0 km/h (2 Bft) O-NO 0,00 h 0,026 mm 0,0 UV-I 0 W/m 2,4 C 1,9 C 14,5 km/h (3 Bft) 99,05 %
25.03.2017 05:00 3,4 C 89 % 1026,9 hPa 0,0 l/m 7,1 km/h (2 Bft) O-NO 0,00 h 0,025 mm 0,0 UV-I 7 W/m 1,7 C 2,6 C 10,2 km/h (2 Bft) 96,52 %
25.03.2017 06:00 3,4 C 89 % 1027,1 hPa 0,0 l/m 8,7 km/h (2 Bft) O-NO 0,87 h 0,000 mm 0,0 UV-I 73 W/m 1,7 C 1,4 C 13,5 km/h (3 Bft) 97,89 %
25.03.2017 07:00 4,4 C 86 % 1027,1 hPa 0,0 l/m 14,3 km/h (3 Bft) O-NO 1,00 h 0,025 mm 0,1 UV-I 228 W/m 2,2 C -1,2 C 20,6 km/h (4 Bft) 96,93 %
25.03.2017 08:00 5,8 C 80 % 1027,2 hPa 0,0 l/m 20,2 km/h (4 Bft) O-NO 1,00 h 0,102 mm 0,7 UV-I 387 W/m 2,6 C -2,1 C 28,1 km/h (4 Bft) 98,42 %
25.03.2017 09:00 7,3 C 73 % 1026,9 hPa 0,0 l/m 24,7 km/h (4 Bft) O-NO 1,00 h 0,203 mm 1,4 UV-I 529 W/m 2,9 C -1,6 C 34,0 km/h (5 Bft) 94,33 %
25.03.2017 10:00 8,4 C 70 % 1026,6 hPa 0,0 l/m 23,9 km/h (4 Bft) O-NO 1,02 h 0,280 mm 2,0 UV-I 653 W/m 3,2 C -0,0 C 32,6 km/h (5 Bft) 93,50 %
25.03.2017 11:00 9,6 C 65 % 1025,9 hPa 0,0 l/m 20,9 km/h (4 Bft) O-NO 0,98 h 0,355 mm 2,5 UV-I 732 W/m 3,4 C 2,6 C 29,7 km/h (5 Bft) 94,28 %
25.03.2017 12:00 11,1 C 62 % 1025,1 hPa 0,0 l/m 18,5 km/h (3 Bft) O-NO 1,00 h 0,407 mm 2,5 UV-I 726 W/m 4,1 C 5,2 C 25,0 km/h (4 Bft) 96,86 %
25.03.2017 13:00 12,1 C 56 % 1024,0 hPa 0,0 l/m 18,5 km/h (3 Bft) O-NO 1,00 h 0,406 mm 2,3 UV-I 695 W/m 3,6 C 6,5 C 26,5 km/h (4 Bft) 96,64 %
25.03.2017 14:00 12,8 C 47 % 1022,9 hPa 0,0 l/m 18,4 km/h (3 Bft) O-NO 1,00 h 0,432 mm 1,7 UV-I 575 W/m 1,7 C 7,4 C 25,6 km/h (4 Bft) 96,52 %
25.03.2017 15:00 13,2 C 44 % 1022,1 hPa 0,0 l/m 15,8 km/h (3 Bft) O-NO 1,00 h 0,381 mm 1,0 UV-I 442 W/m 1,2 C 8,9 C 21,6 km/h (4 Bft) 98,33 %
25.03.2017 16:00 13,1 C 43 % 1021,3 hPa 0,0 l/m 14,3 km/h (3 Bft) O-NO 1,00 h 0,330 mm 0,5 UV-I 267 W/m 0,7 C 9,2 C 20,2 km/h (4 Bft) 95,40 %
25.03.2017 17:00 11,7 C 51 % 1020,9 hPa 0,0 l/m 9,1 km/h (2 Bft) O 0,57 h 0,229 mm 0,0 UV-I 76 W/m 1,8 C 10,1 C 13,9 km/h (3 Bft) 94,74 %
25.03.2017 18:00 9,9 C 57 % 1020,8 hPa 0,0 l/m 6,0 km/h (2 Bft) O-NO 0,23 h 0,101 mm 0,0 UV-I 14 W/m 1,8 C 9,6 C 8,9 km/h (2 Bft) 94,54 %
25.03.2017 19:00 8,8 C 58 % 1020,5 hPa 0,0 l/m 6,8 km/h (2 Bft) O 0,00 h 0,026 mm 0,0 UV-I 0 W/m 0,9 C 8,4 C 10,5 km/h (2 Bft) 96,73 %
25.03.2017 20:00 7,6 C 63 % 1020,3 hPa 0,0 l/m 5,5 km/h (1 Bft) O-NO 0,00 h 0,025 mm 0,0 UV-I 0 W/m 1,0 C 7,6 C 7,7 km/h (2 Bft) 95,48 %
25.03.2017 21:00 6,4 C 70 % 1020,6 hPa 0,0 l/m 7,3 km/h (2 Bft) NO 0,00 h 0,025 mm 0,0 UV-I 0 W/m 1,3 C 5,4 C 10,7 km/h (2 Bft) 95,71 %
25.03.2017 22:00 6,2 C 70 % 1020,6 hPa 0,0 l/m 5,2 km/h (1 Bft) O-NO 0,00 h 0,026 mm 0,0 UV-I 0 W/m 1,2 C 6,1 C 8,1 km/h (2 Bft) 95,98 %
25.03.2017 23:00 5,5 C 73 % 1020,6 hPa 0,0 l/m 6,1 km/h (2 Bft) O 0,00 h 0,025 mm 0,0 UV-I 0 W/m 1,0 C 5,2 C 10,1 km/h (2 Bft) 97,36 %
26.03.2017 00:00 5,3 C 73 % 1020,4 hPa 0,0 l/m 6,9 km/h (2 Bft) O 0,00 h 0,000 mm 0,0 UV-I 0 W/m 0,8 C 4,4 C 10,7 km/h (2 Bft) 96,98 %
26.03.2017 01:00 4,2 C 77 % 1020,4 hPa 0,0 l/m 4,4 km/h (1 Bft) N-NO 0,00 h 0,025 mm 0,0 UV-I 0 W/m 0,6 C 4,2 C 6,6 km/h (2 Bft) 95,09 %
26.03.2017 03:00 4,5 C 78 % 1020,1 hPa 0,0 l/m 7,0 km/h (2 Bft) NO 0,00 h 0,000 mm 0,0 UV-I 0 W/m 1,0 C 3,8 C 11,1 km/h (2 Bft) 97,00 %
26.03.2017 04:00 4,5 C 77 % 1019,8 hPa 0,0 l/m 8,4 km/h (2 Bft) NO 0,00 h 0,026 mm 0,0 UV-I 0 W/m 0,8 C 2,8 C 13,0 km/h (3 Bft) 96,45 %
26.03.2017 05:00 4,2 C 78 % 1020,0 hPa 0,0 l/m 10,3 km/h (2 Bft) O-NO 0,00 h 0,025 mm 0,0 UV-I 0 W/m 0,6 C 1,0 C 14,9 km/h (3 Bft) 97,99 %
26.03.2017 06:00 3,4 C 82 % 1020,1 hPa 0,0 l/m 9,4 km/h (2 Bft) O-NO 0,00 h 0,026 mm 0,0 UV-I 7 W/m 0,5 C 0,8 C 13,8 km/h (3 Bft) 95,31 %
26.03.2017 07:00 3,0 C 84 % 1020,5 hPa 0,0 l/m 9,8 km/h (2 Bft) O-NO 0,77 h 0,025 mm 0,0 UV-I 69 W/m 0,6 C 0,0 C 14,4 km/h (3 Bft) 94,76 %
26.03.2017 08:00 4,6 C 78 % 1020,9 hPa 0,0 l/m 14,6 km/h (3 Bft) O-NO 0,70 h 0,051 mm 0,0 UV-I 178 W/m 1,1 C -1,0 C 20,5 km/h (4 Bft) 95,22 %
26.03.2017 09:00 5,5 C 75 % 1021,3 hPa 0,0 l/m 20,6 km/h (4 Bft) O-NO 0,47 h 0,101 mm 0,7 UV-I 283 W/m 1,4 C -2,6 C 29,0 km/h (5 Bft) 95,85 %
26.03.2017 10:00 6,8 C 71 % 1021,6 hPa 0,0 l/m 24,8 km/h (4 Bft) O-NO 1,00 h 0,178 mm 1,4 UV-I 549 W/m 1,9 C -2,4 C 33,4 km/h (5 Bft) 94,27 %
26.03.2017 11:00 8,1 C 59 % 1022,1 hPa 0,0 l/m 25,2 km/h (4 Bft) O-NO 1,00 h 0,305 mm 2,0 UV-I 668 W/m 0,4 C -0,7 C 34,8 km/h (5 Bft) 93,57 %
26.03.2017 12:00 9,1 C 44 % 1022,4 hPa 0,0 l/m 26,0 km/h (4 Bft) O-NO 1,00 h 0,381 mm 2,4 UV-I 738 W/m -2,4 C 0,3 C 35,6 km/h (5 Bft) 93,78 %
26.03.2017 13:00 9,6 C 36 % 1022,5 hPa 0,0 l/m 29,6 km/h (5 Bft) O-NO 1,00 h 0,483 mm 2,5 UV-I 753 W/m -4,7 C 0,2 C 40,4 km/h (6 Bft) 93,97 %
26.03.2017 14:00 10,4 C 41 % 1022,4 hPa 0,0 l/m 21,3 km/h (4 Bft) O-NO 1,00 h 0,533 mm 2,2 UV-I 694 W/m -2,2 C 3,4 C 30,0 km/h (5 Bft) 97,74 %
26.03.2017 15:00 10,9 C 40 % 1022,2 hPa 0,0 l/m 19,5 km/h (3 Bft) O-NO 1,00 h 0,457 mm 1,6 UV-I 596 W/m -2,1 C 4,7 C 27,8 km/h (4 Bft) 96,97 %
26.03.2017 16:00 11,1 C 40 % 1022,3 hPa 0,0 l/m 17,0 km/h (3 Bft) O-NO 1,00 h 0,407 mm 1,0 UV-I 449 W/m -1,9 C 5,8 C 24,3 km/h (4 Bft) 96,93 %
26.03.2017 17:00 10,6 C 39 % 1022,4 hPa 0,0 l/m 18,6 km/h (3 Bft) O-NO 1,00 h 0,330 mm 0,5 UV-I 274 W/m -2,7 C 4,7 C 25,9 km/h (4 Bft) 96,72 %
26.03.2017 18:00 9,6 C 41 % 1022,6 hPa 0,0 l/m 12,2 km/h (2 Bft) O-NO 1,00 h 0,254 mm 0,0 UV-I 108 W/m -2,9 C 6,0 C 18,6 km/h (3 Bft) 95,31 %
26.03.2017 19:00 7,9 C 47 % 1023,1 hPa 0,0 l/m 10,7 km/h (2 Bft) O 0,27 h 0,127 mm 0,0 UV-I 15 W/m -2,7 C 4,9 C 16,3 km/h (3 Bft) 95,66 %
26.03.2017 20:00 6,5 C 52 % 1023,7 hPa 0,0 l/m 8,4 km/h (2 Bft) O-NO 0,00 h 0,076 mm 0,0 UV-I 0 W/m -2,7 C 4,9 C 12,9 km/h (3 Bft) 94,88 %
26.03.2017 21:00 5,8 C 52 % 1024,3 hPa 0,0 l/m 4,8 km/h (1 Bft) O-NO 0,00 h 0,051 mm 0,0 UV-I 0 W/m -3,3 C 5,7 C 7,1 km/h (2 Bft) 95,20 %
26.03.2017 22:00 5,2 C 53 % 1024,7 hPa 0,0 l/m 6,3 km/h (2 Bft) O-NO 0,00 h 0,025 mm 0,0 UV-I 0 W/m -3,6 C 4,5 C 9,8 km/h (2 Bft) 97,58 %
26.03.2017 23:00 3,1 C 65 % 1025,1 hPa 0,0 l/m 2,1 km/h (1 Bft) NO 0,00 h 0,026 mm 0,0 UV-I 0 W/m -3,0 C 3,1 C 3,5 km/h (1 Bft) 96,46 %
Min-Datum _ 26.03.17 26.03.17 21.03.17 - 20.03.17 - - - - - 26.03.17 23.03.17 20.03.17 25.03.17
_ Min-Zeit 23:58 13:10 16:02 - 16:10 - - - - - 13:10 01:38 16:10 10:02
Minimum _ 1,2 C 30 % 1007,9 hPa - 0,0 km/h (0 Bft) - - - - - -7,3 C -5,2 C 0,0 km/h (0 Bft) 81,25 %
Max-Datum _ 21.03.17 21.03.17 24.03.17 21.03.17 26.03.17 - 20.03.17 26.03.17 21.03.17 21.03.17 20.03.17 21.03.17 26.03.17 20.03.17
_ Max-Zeit 15:02 00:24 22:26 22:50 13:08 - 12:43 14:00 11:46 11:46 15:00 15:02 13:10 00:08
Maximum _ 15,2 C 97 % 1028,4 hPa 0,2 l/m 35,8 km/h
O-NO (5 Bft)
- 0,05 h 0,533 mm 3,1 UV-I 840 W/m 9,8 C 15,2 C 48,3 km/h
O-NO (6 Bft)
100,00 %
Durchschnitt _ 8,3 C 81 % 1016,9 hPa #1,0 l/m 10,0 km/h (2 Bft) O-NO #34:54 h #13,208 mm 1,2 UV-I 215 W/m 5,0 C 5,5 C 14,8 km/h (3 Bft) 96,46 %